sensor_id;sensor_type;location;lat;lon;timestamp;P1;durP1;ratioP1;P2;durP2;ratioP2
71902;SDS011;59778;50.310;18.780;2023-03-01T00:09:15;223.47;;;69.60;;
71902;SDS011;59778;50.310;18.780;2023-03-01T00:24:37;239.43;;;69.87;;
71902;SDS011;59778;50.310;18.780;2023-03-01T00:40:00;212.97;;;66.70;;
71902;SDS011;59778;50.310;18.780;2023-03-01T00:55:22;239.90;;;74.03;;
71902;SDS011;59778;50.310;18.780;2023-03-01T01:10:44;189.33;;;60.10;;
71902;SDS011;59778;50.310;18.780;2023-03-01T01:26:11;194.00;;;58.43;;
71902;SDS011;59778;50.310;18.780;2023-03-01T01:41:34;166.27;;;53.50;;
71902;SDS011;59778;50.310;18.780;2023-03-01T01:56:57;182.27;;;60.83;;
71902;SDS011;59778;50.310;18.780;2023-03-01T02:12:23;190.43;;;63.33;;
71902;SDS011;59778;50.310;18.780;2023-03-01T02:43:19;170.67;;;55.93;;
71902;SDS011;59778;50.310;18.780;2023-03-01T02:58:44;160.47;;;50.80;;
71902;SDS011;59778;50.310;18.780;2023-03-01T03:14:09;153.63;;;48.87;;
71902;SDS011;59778;50.310;18.780;2023-03-01T03:29:33;140.67;;;47.93;;
71902;SDS011;59778;50.310;18.780;2023-03-01T03:44:56;145.87;;;46.20;;
71902;SDS011;59778;50.310;18.780;2023-03-01T04:00:19;166.43;;;49.77;;
71902;SDS011;59778;50.310;18.780;2023-03-01T04:15:42;173.07;;;50.13;;
71902;SDS011;59778;50.310;18.780;2023-03-01T04:31:05;183.70;;;57.03;;
71902;SDS011;59778;50.310;18.780;2023-03-01T04:46:33;163.67;;;52.10;;
71902;SDS011;59778;50.310;18.780;2023-03-01T05:01:55;185.00;;;61.97;;
71902;SDS011;59778;50.310;18.780;2023-03-01T05:17:17;172.70;;;55.97;;
71902;SDS011;59778;50.310;18.780;2023-03-01T05:32:42;176.70;;;60.83;;
71902;SDS011;59778;50.310;18.780;2023-03-01T05:48:05;192.73;;;64.60;;
71902;SDS011;59778;50.310;18.780;2023-03-01T06:03:27;338.50;;;112.83;;
71902;SDS011;59778;50.310;18.780;2023-03-01T06:18:49;363.17;;;106.90;;
71902;SDS011;59778;50.310;18.780;2023-03-01T06:34:10;301.70;;;102.00;;
71902;SDS011;59778;50.310;18.780;2023-03-01T06:49:34;264.60;;;90.57;;
71902;SDS011;59778;50.310;18.780;2023-03-01T07:04:55;230.60;;;78.97;;
71902;SDS011;59778;50.310;18.780;2023-03-01T07:20:17;268.37;;;87.63;;
71902;SDS011;59778;50.310;18.780;2023-03-01T07:35:39;285.70;;;106.43;;
71902;SDS011;59778;50.310;18.780;2023-03-01T07:51:01;181.43;;;65.40;;
71902;SDS011;59778;50.310;18.780;2023-03-01T08:06:24;169.47;;;60.43;;
71902;SDS011;59778;50.310;18.780;2023-03-01T08:21:45;141.10;;;52.60;;
71902;SDS011;59778;50.310;18.780;2023-03-01T08:37:07;119.20;;;44.57;;
71902;SDS011;59778;50.310;18.780;2023-03-01T08:52:28;120.53;;;48.50;;
71902;SDS011;59778;50.310;18.780;2023-03-01T09:07:50;49.73;;;19.93;;
71902;SDS011;59778;50.310;18.780;2023-03-01T09:23:12;52.70;;;24.70;;
71902;SDS011;59778;50.310;18.780;2023-03-01T09:38:33;42.40;;;16.60;;
71902;SDS011;59778;50.310;18.780;2023-03-01T09:53:55;43.60;;;18.23;;
71902;SDS011;59778;50.310;18.780;2023-03-01T10:09:19;44.77;;;19.40;;
71902;SDS011;59778;50.310;18.780;2023-03-01T10:24:42;47.37;;;21.23;;
71902;SDS011;59778;50.310;18.780;2023-03-01T10:40:05;40.17;;;16.93;;
71902;SDS011;59778;50.310;18.780;2023-03-01T10:55:33;44.20;;;17.57;;
71902;SDS011;59778;50.310;18.780;2023-03-01T11:26:34;37.43;;;16.70;;
71902;SDS011;59778;50.310;18.780;2023-03-01T12:29:26;189.93;;;54.30;;
71902;SDS011;59778;50.310;18.780;2023-03-01T13:15:54;27.23;;;11.60;;
71902;SDS011;59778;50.310;18.780;2023-03-01T13:46:38;28.63;;;12.23;;
71902;SDS011;59778;50.310;18.780;2023-03-01T14:02:00;32.17;;;13.37;;
71902;SDS011;59778;50.310;18.780;2023-03-01T14:33:28;24.13;;;10.43;;
71902;SDS011;59778;50.310;18.780;2023-03-01T14:49:17;24.00;;;10.10;;
71902;SDS011;59778;50.310;18.780;2023-03-01T15:04:40;26.60;;;11.93;;
71902;SDS011;59778;50.310;18.780;2023-03-01T15:20:03;31.63;;;13.47;;
71902;SDS011;59778;50.310;18.780;2023-03-01T15:35:43;25.83;;;12.50;;
71902;SDS011;59778;50.310;18.780;2023-03-01T15:51:09;27.63;;;12.13;;
71902;SDS011;59778;50.310;18.780;2023-03-01T16:06:33;31.77;;;13.53;;
71902;SDS011;59778;50.310;18.780;2023-03-01T16:21:56;36.80;;;13.00;;
71902;SDS011;59778;50.310;18.780;2023-03-01T16:37:18;61.37;;;21.07;;
71902;SDS011;59778;50.310;18.780;2023-03-01T16:52:40;86.83;;;33.40;;
71902;SDS011;59778;50.310;18.780;2023-03-01T17:08:01;89.87;;;30.43;;
71902;SDS011;59778;50.310;18.780;2023-03-01T17:23:22;72.43;;;26.00;;
71902;SDS011;59778;50.310;18.780;2023-03-01T17:38:46;93.20;;;31.63;;
71902;SDS011;59778;50.310;18.780;2023-03-01T17:54:09;100.53;;;35.00;;
71902;SDS011;59778;50.310;18.780;2023-03-01T18:09:30;134.17;;;47.17;;
71902;SDS011;59778;50.310;18.780;2023-03-01T18:24:51;181.57;;;65.70;;
71902;SDS011;59778;50.310;18.780;2023-03-01T18:40:13;189.83;;;60.07;;
71902;SDS011;59778;50.310;18.780;2023-03-01T18:55:35;190.70;;;63.57;;
71902;SDS011;59778;50.310;18.780;2023-03-01T19:10:58;193.03;;;62.10;;
71902;SDS011;59778;50.310;18.780;2023-03-01T19:26:24;192.27;;;61.67;;
71902;SDS011;59778;50.310;18.780;2023-03-01T19:41:48;188.43;;;62.17;;
71902;SDS011;59778;50.310;18.780;2023-03-01T19:57:10;185.13;;;61.37;;
71902;SDS011;59778;50.310;18.780;2023-03-01T20:12:35;213.83;;;71.30;;
71902;SDS011;59778;50.310;18.780;2023-03-01T20:27:59;205.37;;;70.07;;
71902;SDS011;59778;50.310;18.780;2023-03-01T20:43:21;179.47;;;58.83;;
71902;SDS011;59778;50.310;18.780;2023-03-01T20:58:43;157.10;;;50.43;;
71902;SDS011;59778;50.310;18.780;2023-03-01T21:14:05;167.33;;;53.90;;
71902;SDS011;59778;50.310;18.780;2023-03-01T21:29:26;196.40;;;64.97;;
71902;SDS011;59778;50.310;18.780;2023-03-01T21:44:47;245.63;;;73.27;;
71902;SDS011;59778;50.310;18.780;2023-03-01T22:00:09;202.33;;;67.00;;
71902;SDS011;59778;50.310;18.780;2023-03-01T22:15:33;224.67;;;70.60;;
71902;SDS011;59778;50.310;18.780;2023-03-01T22:30:54;229.63;;;69.77;;
71902;SDS011;59778;50.310;18.780;2023-03-01T22:46:17;224.80;;;68.17;;
71902;SDS011;59778;50.310;18.780;2023-03-01T23:01:40;202.53;;;60.47;;
71902;SDS011;59778;50.310;18.780;2023-03-01T23:17:04;194.87;;;61.53;;
71902;SDS011;59778;50.310;18.780;2023-03-01T23:32:27;193.73;;;56.30;;
71902;SDS011;59778;50.310;18.780;2023-03-01T23:47:49;209.10;;;65.47;;
